Latest Weather Observations for Horsham

IDV60801

Issued at 1:31 pm EST Friday 29 May 2015 (issued every 30 minutes, with the page automatically refreshed every 10 minutes)

About weather observations | Map of weather stations | Latest weather observations for VIC | Other Formats
Station Details ID: 079100 Name: HORSHAM AERODROME Lat: -36.67 Lon: 142.17 Height: 133.8 m
Data from the previous 72 hours. | See also: Recent months at Horsham
Date/Time
EST
Temp
°C
App
Temp
°C
Dew
Point
Rel
Hum
%
Delta-T
°C
Wind Press
QNH
hPa
Press
MSL
hPa
Rain
since 9 am
mm
Dir
 
Spd
km/h
Gust
km/h
Spd
kts
Gust
kts
29/01:30pm 13.9 11.3 7.9 67 3.0 NW 11 13 6 7 1022.1 1022.2 0.0
29/01:00pm 12.9 9.2 8.0 72 2.4 NW 17 20 9 11 1022.4 1022.5 0.0
29/12:30pm 13.2 10.3 8.1 71 2.5 WNW 13 17 7 9 1022.7 1022.8 0.0
29/12:00pm 12.7 9.6 7.4 70 2.6 WNW 13 19 7 10 1022.9 1023.0 0.0
29/11:30am 12.5 9.2 8.2 75 2.1 WNW 15 20 8 11 1023.3 1023.4 0.0
29/11:00am 12.5 9.0 8.6 77 1.9 WNW 17 22 9 12 1023.4 1023.5 0.0
29/10:30am 11.6 7.7 8.8 83 1.4 WNW 19 24 10 13 1023.4 1023.5 0.0
29/10:00am 10.7 7.8 9.8 94 0.5 NW 15 19 8 10 1023.1 1023.2 0.0
29/09:30am 9.4 6.4 9.1 98 0.1 WNW 15 17 8 9 1023.2 1023.3 0.0
29/09:00am 8.0 5.4 7.9 99 0.0 NW 11 15 6 8 1023.0 1023.1 1.2
29/08:48am 7.4 4.7 7.3 99 0.0 NW 11 13 6 7 1023.0 1023.1 1.2
29/08:34am 6.1 3.4 5.8 98 0.1 NNW 9 11 5 6 1022.8 1022.9 1.2
29/08:32am 6.0 3.3 5.7 98 0.1 NNW 9 11 5 6 1022.8 1022.9 1.2
29/08:30am 5.8 3.1 5.5 98 0.1 NNW 9 11 5 6 1022.8 1022.9 1.2
29/08:17am 5.0 1.7 4.7 98 0.1 NW 11 13 6 7 1022.7 1022.8 1.2
29/08:14am 4.9 1.2 4.6 98 0.1 NW 13 15 7 8 1022.7 1022.8 1.2
29/08:03am 5.1 1.5 4.8 98 0.1 NW 13 17 7 9 1022.6 1022.7 1.2
29/08:00am 5.0 1.3 4.7 98 0.1 NW 13 17 7 9 1022.5 1022.6 1.2
29/07:46am 4.3 0.5 4.0 98 0.1 NNW 13 15 7 8 1022.4 1022.5 1.2
29/07:30am 4.0 -0.2 3.7 98 0.1 NW 15 17 8 9 1022.1 1022.2 1.2
29/07:16am 3.4 -0.9 3.1 98 0.1 NNW 15 17 8 9 1022.0 1022.1 1.2
29/07:00am 3.1 -0.9 2.8 98 0.1 NNW 13 15 7 8 1021.7 1021.8 1.2
29/06:59am 3.1 -0.9 2.8 98 0.1 NW 13 15 7 8 1021.7 1021.8 1.2
29/06:45am 3.3 -0.7 3.0 98 0.1 NW 13 13 7 7 1021.5 1021.5 1.2
29/06:44am 3.3 -0.7 3.0 98 0.1 NW 13 13 7 7 1021.5 1021.5 1.2
29/06:43am 3.4 -0.6 3.1 98 0.1 NW 13 13 7 7 1021.5 1021.5 1.2
29/06:30am 4.1 0.3 3.8 98 0.1 NW 13 15 7 8 1021.1 1021.2 1.2
29/06:20am 4.1 -0.1 3.8 98 0.1 NW 15 15 8 8 1021.0 1021.1 1.2
29/06:13am 3.7 -0.6 3.4 98 0.1 NW 15 17 8 9 1020.9 1021.0 1.2
29/06:12am 3.7 -0.6 3.4 98 0.1 NW 15 17 8 9 1020.9 1021.0 1.2
29/06:00am 4.1 0.3 3.8 98 0.1 NNW 13 13 7 7 1020.7 1020.8 1.2
29/05:40am 4.7 1.8 4.4 98 0.1 NW 9 11 5 6 1020.5 1020.6 1.2
29/05:39am 5.0 2.1 4.7 98 0.1 NW 9 11 5 6 1020.5 1020.6 1.2
29/05:30am 4.7 1.4 4.4 98 0.1 NW 11 13 6 7 1020.6 1020.7 1.2
29/05:14am 4.6 0.9 4.3 98 0.1 NW 13 15 7 8 1020.7 1020.8 1.2
29/05:13am 4.5 0.8 4.2 98 0.1 NW 13 15 7 8 1020.7 1020.8 1.2
29/05:12am 4.5 0.8 4.2 98 0.1 NW 13 15 7 8 1020.6 1020.7 1.2
29/05:11am 4.5 0.8 4.2 98 0.1 NW 13 15 7 8 1020.6 1020.7 1.2
29/05:10am 4.5 0.8 4.2 98 0.1 NW 13 15 7 8 1020.6 1020.7 1.2
29/05:09am 4.5 0.8 4.2 98 0.1 NW 13 15 7 8 1020.7 1020.8 1.2
29/05:07am 4.4 0.6 4.1 98 0.1 NW 13 17 7 9 1020.7 1020.8 1.2
29/05:05am 4.1 0.3 3.7 97 0.2 NW 13 17 7 9 1020.6 1020.7 1.2
29/05:00am 3.8 -0.5 3.4 97 0.2 NW 15 17 8 9 1020.6 1020.7 1.2
29/04:41am 3.4 -0.9 3.0 97 0.2 NW 15 17 8 9 1020.5 1020.6 1.2
29/04:39am 3.4 -1.3 3.0 97 0.2 NW 17 17 9 9 1020.5 1020.6 1.2
29/04:38am 3.4 -1.3 3.0 97 0.2 NW 17 17 9 9 1020.5 1020.6 1.2
29/04:37am 3.4 -1.3 3.0 97 0.2 NW 17 17 9 9 1020.5 1020.6 1.2
29/04:34am 3.4 -0.9 3.0 97 0.2 NW 15 17 8 9 1020.4 1020.5 1.2
29/04:33am 3.4 -0.9 3.0 97 0.2 NW 15 17 8 9 1020.4 1020.5 1.2
29/04:30am 3.5 -0.8 3.1 97 0.2 NW 15 17 8 9 1020.4 1020.5 1.2
29/04:26am 3.7 -0.2 3.3 97 0.2 NW 13 15 7 8 1020.4 1020.5 1.2
29/04:14am 4.2 0.8 3.8 97 0.2 NW 11 13 6 7 1020.3 1020.4 1.2
29/04:05am 4.8 2.2 4.4 97 0.2 NW 7 9 4 5 1020.2 1020.3 1.2
29/04:03am 5.0 2.5 4.6 97 0.2 NW 7 9 4 5 1020.2 1020.3 1.2
29/04:00am 5.1 2.6 4.7 97 0.2 NW 7 9 4 5 1020.2 1020.3 1.2
29/03:30am 5.0 2.4 4.4 96 0.3 NW 7 7 4 4 1020.0 1020.1 1.2
29/03:18am 5.4 2.9 4.7 95 0.3 WNW 7 9 4 5 1020.1 1020.2 1.2
29/03:03am 6.6 4.0 5.9 95 0.3 WNW 9 13 5 7 1020.1 1020.2 1.2
29/03:00am 7.3 4.4 6.6 95 0.3 WNW 11 13 6 7 1020.0 1020.1 1.2
29/02:30am 9.1 6.2 8.3 95 0.4 WNW 13 17 7 9 1019.8 1019.9 1.2
29/02:00am 9.6 6.8 8.7 94 0.4 W 13 17 7 9 1019.8 1019.9 1.2
29/01:30am 9.8 7.1 8.9 94 0.4 W 13 17 7 9 1019.7 1019.8 1.2
29/01:00am 10.3 7.4 9.7 96 0.3 WNW 15 19 8 10 1019.6 1019.7 1.0
29/12:30am 7.9 5.5 7.1 95 0.4 WNW 9 13 5 7 1019.3 1019.4 1.0
29/12:00am 9.3 7.3 8.5 95 0.4 W 9 11 5 6 1019.2 1019.3 1.0
 
Date/Time
EST
Temp
°C
App
Temp
°C
Dew
Point
Rel
Hum
%
Delta-T
°C
Wind Press
QNH
hPa
Press
MSL
hPa
Rain
since 9 am
mm
Dir
 
Spd
km/h
Gust
km/h
Spd
kts
Gust
kts
28/11:30pm 9.7 7.8 8.9 95 0.4 W 9 13 5 7 1018.9 1019.0 1.0
28/11:00pm 10.1 8.3 9.3 95 0.4 W 9 13 5 7 1018.8 1018.9 1.0
28/10:30pm 10.5 8.4 9.7 95 0.4 W 11 13 6 7 1018.9 1019.0 1.0
28/10:00pm 10.8 9.1 10.0 95 0.4 W 9 15 5 8 1018.8 1018.9 1.0
28/09:30pm 11.2 9.3 10.4 95 0.4 W 11 15 6 8 1018.8 1018.9 1.0
28/09:06pm 11.6 8.6 10.7 94 0.5 W 17 22 9 12 1018.6 1018.7 1.0
28/09:00pm 11.6 8.2 10.7 94 0.5 W 19 28 10 15 1018.6 1018.7 1.0
28/08:52pm 11.7 8.8 10.9 95 0.4 WSW 17 28 9 15 1018.6 1018.7 1.0
28/08:30pm 11.8 10.0 11.0 95 0.4 W 11 13 6 7 1018.4 1018.5 1.0
28/08:00pm 12.2 10.5 11.3 94 0.5 W 11 13 6 7 1018.0 1018.1 1.0
28/07:30pm 12.4 10.0 11.5 94 0.5 WNW 15 19 8 10 1017.8 1017.9 1.0
28/07:00pm 12.5 9.8 11.6 94 0.5 W 17 20 9 11 1017.6 1017.7 1.0
28/06:30pm 13.5 8.0 10.7 83 1.5 WSW 30 41 16 22 1017.3 1017.4 0.0
28/06:00pm 14.9 9.0 7.7 62 3.6 WNW 28 35 15 19 1016.3 1016.4 0.0
28/05:30pm 15.6 8.8 7.6 59 4.0 WNW 33 46 18 25 1015.9 1016.0 0.0
28/05:00pm 16.5 9.3 7.7 56 4.4 WNW 35 46 19 25 1015.7 1015.8 0.0
28/04:30pm 17.3 8.5 7.1 51 5.1 NW 43 54 23 29 1015.3 1015.4 0.0
28/04:10pm 18.1 9.8 6.3 46 5.9 WNW 39 65 21 35 1015.1 1015.1 0.0
28/04:00pm 18.4 10.1 6.3 45 6.0 NW 39 50 21 27 1015.0 1015.0 0.0
28/03:30pm 18.7 10.3 5.5 42 6.5 WNW 39 50 21 27 1014.9 1014.9 0.0
28/03:00pm 19.7 11.4 6.1 41 6.8 NW 39 48 21 26 1014.6 1014.6 0.0
28/02:30pm 19.6 10.8 5.6 40 6.9 WNW 41 54 22 29 1014.8 1014.8 0.0
28/02:00pm 20.0 11.2 5.6 39 7.1 WNW 41 54 22 29 1015.0 1015.0 0.0
28/01:30pm 20.0 10.6 5.6 39 7.2 NW 44 56 24 30 1015.2 1015.2 0.0
28/01:00pm 19.7 11.1 6.4 42 6.7 NW 41 50 22 27 1015.4 1015.5 0.0
28/12:30pm 19.5 11.6 7.9 47 6.0 NW 39 54 21 29 1016.0 1016.1 0.0
28/12:00pm 18.6 12.5 9.7 56 4.7 NW 32 43 17 23 1016.5 1016.6 0.0
28/11:30am 18.0 11.8 9.9 59 4.3 NW 33 44 18 24 1016.9 1017.0 0.0
28/11:00am 18.4 12.8 8.7 53 5.1 NW 28 39 15 21 1017.4 1017.5 0.0
28/10:30am 17.4 11.4 8.5 56 4.6 NNW 30 39 16 21 1017.8 1017.9 0.0
28/10:00am 16.4 10.6 8.1 58 4.2 NW 28 35 15 19 1017.7 1017.8 0.0
28/09:30am 13.7 9.4 7.7 67 3.0 NNW 20 26 11 14 1017.9 1018.0 0.0
28/09:00am 10.8 6.9 6.9 77 1.9 NNW 17 20 9 11 1018.0 1018.1 0.0
28/08:30am 7.8 5.1 5.6 86 1.0 N 9 11 5 6 1017.8 1017.9 0.0
28/08:00am 5.5 3.0 3.7 88 0.8 NNW 6 9 3 5 1017.7 1017.8 0.0
28/07:30am 6.2 4.2 4.5 89 0.7 NW 4 7 2 4 1017.7 1017.8 0.0
28/07:00am 5.5 2.4 3.7 88 0.8 NNW 9 13 5 7 1017.4 1017.5 0.0
28/06:30am 6.9 3.3 5.1 88 0.8 N 13 13 7 7 1017.1 1017.2 0.0
28/06:00am 6.8 2.7 4.6 86 1.0 NNW 15 17 8 9 1017.2 1017.3 0.0
28/05:30am 7.6 3.7 5.2 85 1.1 NNW 15 19 8 10 1017.0 1017.1 0.0
28/05:00am 7.5 3.5 5.1 85 1.1 NNW 15 20 8 11 1017.1 1017.2 0.0
28/04:30am 7.8 3.1 5.3 84 1.1 N 19 20 10 11 1017.0 1017.1 0.0
28/04:00am 8.5 4.2 5.4 81 1.4 N 17 20 9 11 1017.2 1017.3 0.0
28/03:30am 7.8 3.5 5.1 83 1.2 N 17 20 9 11 1017.7 1017.8 0.0
28/03:00am 6.4 3.4 4.2 86 0.9 N 9 13 5 7 1017.7 1017.8 0.0
28/02:30am 6.9 3.2 4.4 84 1.1 N 13 17 7 9 1017.6 1017.7 0.0
28/02:00am 6.5 3.1 4.2 85 1.0 N 11 13 6 7 1017.8 1017.9 0.0
28/01:30am 6.4 1.9 4.1 85 1.0 NNE 17 17 9 9 1017.8 1017.9 0.0
28/01:00am 6.5 3.1 4.0 84 1.1 N 11 13 6 7 1018.0 1018.1 0.0
28/12:30am 7.0 3.7 4.7 85 1.0 NNW 11 17 6 9 1018.4 1018.5 0.0
28/12:00am 6.6 3.5 3.8 82 1.2 N 9 13 5 7 1018.4 1018.5 0.0
 
Date/Time
EST
Temp
°C
App
Temp
°C
Dew
Point
Rel
Hum
%
Delta-T
°C
Wind Press
QNH
hPa
Press
MSL
hPa
Rain
since 9 am
mm
Dir
 
Spd
km/h
Gust
km/h
Spd
kts
Gust
kts
27/11:30pm 7.1 2.5 3.9 80 1.4 N 17 20 9 11 1018.5 1018.6 0.0
27/11:00pm 7.5 3.7 4.1 79 1.5 N 13 15 7 8 1018.6 1018.7 0.0
27/10:30pm 8.3 3.9 4.5 77 1.7 N 17 19 9 10 1018.9 1019.0 0.0
27/10:00pm 8.5 4.8 4.5 76 1.8 N 13 13 7 7 1018.8 1018.9 0.0
27/09:30pm 9.1 5.8 4.5 73 2.1 N 11 13 6 7 1018.9 1019.0 0.0
27/09:00pm 10.0 6.8 5.0 71 2.3 NNW 11 13 6 7 1018.8 1018.9 0.0
27/08:30pm 9.9 6.7 4.9 71 2.3 NNW 11 13 6 7 1018.9 1019.0 0.0
27/08:00pm 10.0 5.9 4.6 69 2.4 NNW 15 17 8 9 1018.9 1019.0 0.0
27/07:30pm 10.4 6.0 4.8 68 2.5 NNW 17 17 9 9 1018.8 1018.9 0.0
27/07:00pm 11.0 6.6 4.9 66 2.8 NNW 17 19 9 10 1018.6 1018.7 0.0
27/06:30pm 11.7 8.1 4.9 63 3.1 NNW 13 15 7 8 1018.5 1018.6 0.0
27/06:00pm 12.6 9.1 5.3 61 3.4 NW 13 15 7 8 1018.2 1018.3 0.0
27/05:30pm 16.0 12.4 6.7 54 4.6 WNW 15 19 8 10 1018.0 1018.1 0.0
27/05:00pm 18.2 13.8 6.7 47 5.8 WNW 19 22 10 12 1017.9 1018.0 0.0
27/04:30pm 19.4 14.2 7.2 45 6.2 NW 24 32 13 17 1017.8 1017.9 0.0
27/04:00pm 20.0 13.7 7.4 44 6.5 NW 30 37 16 20 1017.8 1017.9 0.0
27/03:30pm 20.3 14.4 7.3 43 6.7 WNW 28 37 15 20 1017.7 1017.8 0.0
27/03:00pm 20.6 14.6 6.9 41 7.0 NW 28 35 15 19 1017.4 1017.5 0.0
27/02:30pm 20.6 15.3 8.3 45 6.5 WNW 26 30 14 16 1017.6 1017.7 0.0
27/02:00pm 20.3 14.6 8.3 46 6.3 NW 28 35 15 19 1017.7 1017.8 0.0
27/01:30pm 20.3 14.7 8.6 47 6.2 WNW 28 37 15 20 1018.0 1018.1 0.0
27/01:00pm 19.9 14.0 8.9 49 5.8 NW 30 37 16 20 1018.3 1018.4 0.0
27/12:30pm 19.4 13.5 9.0 51 5.5 NW 30 35 16 19 1018.8 1018.9 0.0
27/12:00pm 19.3 14.2 9.2 52 5.3 NW 26 39 14 21 1019.3 1019.4 0.0
27/11:30am 18.5 14.5 9.0 54 5.0 NNW 20 28 11 15 1019.8 1019.9 0.0
27/11:00am 17.7 13.8 8.8 56 4.6 NW 19 30 10 16 1020.3 1020.4 0.0
27/10:30am 16.2 14.0 9.4 64 3.5 N 11 17 6 9 1020.6 1020.7 0.0
27/10:00am 15.2 12.6 9.3 68 3.0 N 13 17 7 9 1020.6 1020.7 0.0
27/09:30am 13.9 11.7 9.3 74 2.4 N 11 15 6 8 1020.6 1020.7 0.0
27/09:00am 12.4 9.8 9.4 82 1.5 NE 13 17 7 9 1020.5 1020.6 0.0
27/08:30am 11.0 8.7 8.9 87 1.0 ENE 11 13 6 7 1020.3 1020.4 0.0
27/08:00am 9.6 7.4 7.7 88 0.9 NE 9 11 5 6 1020.2 1020.3 0.0
27/07:30am 10.0 7.1 8.1 88 0.9 NE 13 13 7 7 1020.2 1020.3 0.0
27/07:00am 10.2 7.7 8.3 88 0.9 ENE 11 13 6 7 1019.8 1019.9 0.0
27/06:30am 10.2 8.4 7.8 85 1.2 NE 7 9 4 5 1019.8 1019.9 0.0
27/06:00am 10.2 8.4 7.8 85 1.2 ENE 7 7 4 4 1019.8 1019.9 0.0
27/05:30am 10.2 7.9 7.6 84 1.3 NE 9 11 5 6 1019.7 1019.8 0.0
27/05:00am 10.2 7.9 7.4 83 1.3 ENE 9 11 5 6 1019.8 1019.9 0.0
27/04:30am 10.0 6.9 7.4 84 1.2 NNE 13 17 7 9 1019.9 1020.0 0.0
27/04:00am 9.9 6.4 7.3 84 1.2 NE 15 15 8 8 1019.8 1019.9 0.0
27/03:30am 9.9 7.6 7.3 84 1.2 NE 9 9 5 5 1020.2 1020.3 0.0
27/03:00am 10.1 7.3 7.0 81 1.5 NNE 11 13 6 7 1020.6 1020.7 0.0
27/02:30am 10.1 6.9 6.8 80 1.6 NNE 13 17 7 9 1020.7 1020.8 0.0
27/02:00am 10.9 7.0 7.0 77 1.9 NNE 17 19 9 10 1020.6 1020.7 0.0
27/01:30am 11.2 6.7 7.1 76 2.0 NE 20 28 11 15 1020.6 1020.7 0.0
27/01:00am 11.8 7.0 7.3 74 2.2 NE 22 26 12 14 1021.0 1021.1 0.0
27/12:30am 12.1 7.7 7.2 72 2.4 NE 20 26 11 14 1021.5 1021.5 0.0
27/12:00am 12.0 7.6 7.3 73 2.3 NE 20 24 11 13 1021.9 1022.0 0.0
 
Date/Time
EST
Temp
°C
App
Temp
°C
Dew
Point
Rel
Hum
%
Delta-T
°C
Wind Press
QNH
hPa
Press
MSL
hPa
Rain
since 9 am
mm
Dir
 
Spd
km/h
Gust
km/h
Spd
kts
Gust
kts
26/11:30pm 11.9 7.5 7.2 73 2.3 NE 20 26 11 14 1022.2 1022.3 0.0
26/11:00pm 12.0 6.8 7.3 73 2.3 NE 24 30 13 16 1022.2 1022.3 0.0
26/10:30pm 12.1 7.3 7.4 73 2.3 NE 22 28 12 15 1022.6 1022.7 0.0
26/10:00pm 12.0 7.6 7.3 73 2.3 NE 20 24 11 13 1022.9 1023.0 0.0
26/09:30pm 12.2 7.4 7.5 73 2.3 NE 22 26 12 14 1023.0 1023.1 0.0
26/09:00pm 12.2 7.4 7.3 72 2.4 NE 22 24 12 13 1023.3 1023.4 0.0
26/08:30pm 12.1 7.7 7.2 72 2.4 NE 20 24 11 13 1023.2 1023.3 0.0
26/08:00pm 11.6 7.3 7.1 74 2.2 NE 19 20 10 11 1023.1 1023.2 0.0
26/07:30pm 11.8 7.5 6.9 72 2.4 NE 19 20 10 11 1023.1 1023.2 0.0
26/07:00pm 12.3 8.0 6.8 69 2.6 NE 19 20 10 11 1023.2 1023.3 0.0
26/06:30pm 13.5 9.2 7.1 65 3.1 NE 19 20 10 11 1023.0 1023.1 0.0
26/06:00pm 14.6 10.2 7.2 61 3.6 NNE 20 22 11 12 1023.0 1023.1 0.0
26/05:30pm 16.3 11.5 7.5 56 4.4 NNE 22 28 12 15 1022.8 1022.9 0.0
26/05:00pm 17.5 12.0 7.5 52 5.0 N 26 32 14 17 1022.5 1022.6 0.0
26/04:30pm 18.0 14.5 7.4 50 5.4 N 15 19 8 10 1022.9 1023.0 0.0
26/04:00pm 17.9 13.7 7.6 51 5.2 N 19 24 10 13 1023.1 1023.2 0.0
26/03:39pm 18.2 14.4 7.6 50 5.4 NNE 17 24 9 13 1023.1 1023.2 0.0
26/03:30pm 18.4 14.1 7.2 48 5.7 N 19 26 10 14 1023.1 1023.2 0.0
26/03:29pm 18.6 14.4 7.4 48 5.7 N 19 26 10 14 1023.1 1023.2 0.0
26/03:00pm 18.7 14.5 7.5 48 5.7 N 19 24 10 13 1023.4 1023.5 0.0
26/02:30pm 18.5 14.8 7.9 50 5.5 NNE 17 24 9 13 1023.9 1024.0 0.0
26/02:00pm 17.4 13.7 8.0 54 4.8 NNE 17 24 9 13 1024.6 1024.7 0.0

Other Formats:

Comma delimited format used in spreadsheet applications
http://www.bom.gov.au/fwo/IDV60801/IDV60801.95839.axf

JavaScript Object Notation format (JSON) in row-major order
http://www.bom.gov.au/fwo/IDV60801/IDV60801.95839.json